PWSweather.com
Personal Weather Stations
Station Observations
GRD01
Warsaw, LesznoPL 05-084

WarsawLesznoPL 05-084

Lat: 52.257404, Lon: 20.564847

Elevation: 298

Station Type: WH3080

http://pogoda.kampinos.waw.pl

High Low Average
Temperature 83.3°F28.5°F 32.0°F0.0°F 66.1°F18.9°F
Dew Point 68.7°F20.4°F 32.0°F0.0°F 61.8°F16.6°F
Winds 15.9 mph -25.6 mph - Calm Calm 4.3 mph 6.9 mph
Wind Gusts 20.6 mph33.2 mph -- 7.8 mph12.6 mph
Humidity 99% 0% 72%
Pressure 29.49 in998.60 in 29.34 in993.60 in -
Precipitation 0.69 in17.50 in - -
Hour Temp Dew Point Humidity Winds Wind Gusts Pressure Precip Precip Rate Daily Precip Total
12:00 AM 67.1°F19.5°C 65.6°F18.7°C 95% 2.2 mph N3.5 kmh N 7.6 mph12.2 kmh 29.38 in994.9 mb 0.04 in1.0 mm 0.00 in0.0 mm 0.04 in1.0 mm
12:15 AM 67.1°F19.5°C 65.9°F18.8°C 96% 1.6 mph NW2.6 kmh NW 6.0 mph9.7 kmh 29.36 in994.2 mb 0.07 in1.8 mm 0.12 in3.0 mm 0.07 in1.8 mm
12:30 AM 67.1°F19.5°C 65.9°F18.8°C 96% 2.2 mph N3.5 kmh N 4.5 mph7.2 kmh 29.35 in993.9 mb 0.07 in1.8 mm 0.00 in0.0 mm 0.07 in1.8 mm
12:45 AM 67.1°F19.5°C 66.2°F19.0°C 97% 2.2 mph N3.5 kmh N 3.8 mph6.1 kmh 29.35 in993.9 mb 0.08 in2.0 mm 0.04 in1.0 mm 0.08 in2.0 mm
01:00 AM 67.1°F19.5°C 66.2°F19.0°C 97% 3.8 mph N6.1 kmh N 5.4 mph8.7 kmh 29.34 in993.6 mb 0.04 in1.0 mm 0.00 in0.0 mm 0.08 in2.0 mm
01:15 AM 67.1°F19.5°C 66.5°F19.2°C 98% 3.8 mph N6.1 kmh N 6.0 mph9.7 kmh 29.34 in993.6 mb 0.01 in0.3 mm 0.00 in0.0 mm 0.08 in2.0 mm
01:30 AM 67.3°F19.6°C 66.7°F19.3°C 98% 5.4 mph N8.7 kmh N 7.6 mph12.2 kmh 29.35 in993.9 mb 0.01 in0.3 mm 0.00 in0.0 mm 0.08 in2.0 mm
01:45 AM 67.5°F19.7°C 67.2°F19.6°C 99% 5.4 mph N8.7 kmh N 9.8 mph15.8 kmh 29.36 in994.2 mb 0.00 in0.0 mm 0.00 in0.0 mm 0.08 in2.0 mm
02:00 AM 67.5°F19.7°C 67.2°F19.6°C 99% 6.9 mph NNE11.1 kmh NNE 9.8 mph15.8 kmh 29.36 in994.2 mb 0.00 in0.0 mm 0.00 in0.0 mm 0.08 in2.0 mm
02:15 AM 67.5°F19.7°C 67.2°F19.6°C 99% 6.0 mph NNE9.7 kmh NNE 8.3 mph13.4 kmh 29.36 in994.2 mb 0.00 in0.0 mm 0.00 in0.0 mm 0.08 in2.0 mm
02:30 AM 67.5°F19.7°C 67.2°F19.6°C 99% 3.1 mph N5.0 kmh N 9.2 mph14.8 kmh 29.36 in994.2 mb 0.00 in0.0 mm 0.00 in0.0 mm 0.08 in2.0 mm
02:45 AM 67.5°F19.7°C 67.2°F19.6°C 99% 4.5 mph N7.2 kmh N 8.3 mph13.4 kmh 29.36 in994.2 mb 0.00 in0.0 mm 0.00 in0.0 mm 0.08 in2.0 mm
03:00 AM 67.5°F19.7°C 67.2°F19.6°C 99% 4.5 mph NNE7.2 kmh NNE 9.8 mph15.8 kmh 29.37 in994.6 mb 0.00 in0.0 mm 0.00 in0.0 mm 0.08 in2.0 mm
03:15 AM 67.5°F19.7°C 67.2°F19.6°C 99% 4.5 mph NNE7.2 kmh NNE 6.9 mph11.1 kmh 29.36 in994.2 mb 0.00 in0.0 mm 0.00 in0.0 mm 0.08 in2.0 mm
03:30 AM 67.5°F19.7°C 67.2°F19.6°C 99% 3.8 mph N6.1 kmh N 7.6 mph12.2 kmh 29.36 in994.2 mb 0.00 in0.0 mm 0.00 in0.0 mm 0.08 in2.0 mm
03:45 AM 67.5°F19.7°C 67.2°F19.6°C 99% 3.8 mph N6.1 kmh N 6.9 mph11.1 kmh 29.37 in994.6 mb 0.00 in0.0 mm 0.00 in0.0 mm 0.08 in2.0 mm
04:00 AM 67.5°F19.7°C 67.2°F19.6°C 99% 6.0 mph N9.7 kmh N 6.9 mph11.1 kmh 29.36 in994.2 mb 0.00 in0.0 mm 0.00 in0.0 mm 0.08 in2.0 mm
04:15 AM 67.3°F19.6°C 67.0°F19.4°C 99% 4.5 mph N7.2 kmh N 9.2 mph14.8 kmh 29.37 in994.6 mb 0.00 in0.0 mm 0.00 in0.0 mm 0.08 in2.0 mm
04:30 AM 67.3°F19.6°C 67.0°F19.4°C 99% 4.5 mph N7.2 kmh N 6.9 mph11.1 kmh 29.38 in994.9 mb 0.00 in0.0 mm 0.00 in0.0 mm 0.08 in2.0 mm
04:45 AM 67.3°F19.6°C 67.0°F19.4°C 99% 3.8 mph NNE6.1 kmh NNE 6.0 mph9.7 kmh 29.37 in994.6 mb 0.00 in0.0 mm 0.00 in0.0 mm 0.08 in2.0 mm
05:00 AM 67.3°F19.6°C 67.0°F19.4°C 99% 3.8 mph N6.1 kmh N 4.5 mph7.2 kmh 29.38 in994.9 mb 0.00 in0.0 mm 0.00 in0.0 mm 0.08 in2.0 mm
05:11 AM 32.0°F0.0°C 32.0°F0.0°C 0% Calm Calm -- 29.38 in994.9 mb 0.00 in0.0 mm 0.00 in0.0 mm 0.08 in2.0 mm
05:41 AM 32.0°F0.0°C 32.0°F0.0°C 0% Calm Calm -- 29.38 in994.9 mb 0.00 in0.0 mm 0.00 in0.0 mm 0.08 in2.0 mm
06:11 AM 32.0°F0.0°C 32.0°F0.0°C 0% Calm Calm -- 29.39 in995.3 mb 0.00 in0.0 mm 0.00 in0.0 mm 0.08 in2.0 mm
06:41 AM 32.0°F0.0°C 32.0°F0.0°C 0% Calm Calm -- 29.40 in995.6 mb 0.00 in0.0 mm 0.00 in0.0 mm 0.08 in2.0 mm
06:42 AM 32.0°F0.0°C 32.0°F0.0°C 0% Calm Calm -- 29.40 in995.6 mb 0.00 in0.0 mm 0.00 in0.0 mm 0.08 in2.0 mm
07:12 AM 32.0°F0.0°C 32.0°F0.0°C 0% Calm Calm -- 29.40 in995.6 mb 0.00 in0.0 mm 0.00 in0.0 mm 0.08 in2.0 mm
07:42 AM 32.0°F0.0°C 32.0°F0.0°C 0% Calm Calm -- 29.41 in995.9 mb 0.00 in0.0 mm 0.00 in0.0 mm 0.08 in2.0 mm
08:12 AM 32.0°F0.0°C 32.0°F0.0°C 0% Calm Calm -- 29.41 in995.9 mb 0.00 in0.0 mm 0.00 in0.0 mm 0.08 in2.0 mm
08:42 AM 32.0°F0.0°C 32.0°F0.0°C 0% Calm Calm -- 29.41 in995.9 mb 0.00 in0.0 mm 0.00 in0.0 mm 0.08 in2.0 mm
09:12 AM 32.0°F0.0°C 32.0°F0.0°C 0% Calm Calm -- 29.41 in995.9 mb 0.00 in0.0 mm 0.00 in0.0 mm 0.08 in2.0 mm
09:42 AM 32.0°F0.0°C 32.0°F0.0°C 0% Calm Calm -- 29.41 in995.9 mb 0.00 in0.0 mm 0.00 in0.0 mm 0.08 in2.0 mm
10:12 AM 32.0°F0.0°C 32.0°F0.0°C 0% Calm Calm -- 29.41 in995.9 mb 0.00 in0.0 mm 0.00 in0.0 mm 0.08 in2.0 mm
10:42 AM 32.0°F0.0°C 32.0°F0.0°C 0% Calm Calm -- 29.42 in996.3 mb 0.00 in0.0 mm 0.00 in0.0 mm 0.08 in2.0 mm
12:00 PM 79.7°F26.5°C 66.4°F19.1°C 64% 6.0 mph NNE9.7 kmh NNE 13.6 mph21.9 kmh 29.42 in996.3 mb 0.00 in0.0 mm 0.00 in0.0 mm 0.08 in2.0 mm
12:15 PM 80.4°F26.9°C 67.6°F19.8°C 65% 7.6 mph NNE12.2 kmh NNE 12.1 mph19.5 kmh 29.42 in996.3 mb 0.00 in0.0 mm 0.00 in0.0 mm 0.08 in2.0 mm
12:30 PM 79.9°F26.6°C 66.6°F19.2°C 64% 6.0 mph N9.7 kmh N 10.7 mph17.2 kmh 29.42 in996.3 mb 0.00 in0.0 mm 0.00 in0.0 mm 0.08 in2.0 mm
12:45 PM 80.8°F27.1°C 67.0°F19.4°C 63% 3.1 mph NE5.0 kmh NE 7.6 mph12.2 kmh 29.41 in995.9 mb 0.00 in0.0 mm 0.00 in0.0 mm 0.08 in2.0 mm
01:00 PM 81.7°F27.6°C 66.4°F19.1°C 60% 3.8 mph NNE6.1 kmh NNE 7.6 mph12.2 kmh 29.41 in995.9 mb 0.00 in0.0 mm 0.00 in0.0 mm 0.08 in2.0 mm
01:15 PM 81.3°F27.4°C 67.5°F19.7°C 63% 7.6 mph N12.2 kmh N 10.7 mph17.2 kmh 29.41 in995.9 mb 0.00 in0.0 mm 0.00 in0.0 mm 0.08 in2.0 mm
01:30 PM 81.3°F27.4°C 68.0°F20.0°C 64% 2.2 mph NW3.5 kmh NW 9.8 mph15.8 kmh 29.41 in995.9 mb 0.00 in0.0 mm 0.00 in0.0 mm 0.08 in2.0 mm
01:45 PM 82.9°F28.3°C 67.6°F19.8°C 60% 2.2 mph W3.5 kmh W 5.4 mph8.7 kmh 29.41 in995.9 mb 0.00 in0.0 mm 0.00 in0.0 mm 0.08 in2.0 mm
02:00 PM 82.0°F27.8°C 65.8°F18.8°C 58% 12.1 mph N19.5 kmh N 15.2 mph24.5 kmh 29.41 in995.9 mb 0.00 in0.0 mm 0.00 in0.0 mm 0.08 in2.0 mm
02:15 PM 81.0°F27.2°C 67.2°F19.6°C 63% 9.2 mph N14.8 kmh N 12.1 mph19.5 kmh 29.41 in995.9 mb 0.00 in0.0 mm 0.00 in0.0 mm 0.08 in2.0 mm
02:30 PM 82.4°F28.0°C 67.1°F19.5°C 60% 7.6 mph NNW12.2 kmh NNW 15.2 mph24.5 kmh 29.41 in995.9 mb 0.00 in0.0 mm 0.00 in0.0 mm 0.08 in2.0 mm
02:45 PM 82.0°F27.8°C 67.3°F19.6°C 61% 5.4 mph NNW8.7 kmh NNW 7.6 mph12.2 kmh 29.40 in995.6 mb 0.00 in0.0 mm 0.00 in0.0 mm 0.08 in2.0 mm
03:00 PM 83.1°F28.4°C 67.8°F19.9°C 60% 9.2 mph N14.8 kmh N 10.7 mph17.2 kmh 29.40 in995.6 mb 0.00 in0.0 mm 0.00 in0.0 mm 0.08 in2.0 mm
03:15 PM 83.3°F28.5°C 67.0°F19.4°C 58% 4.5 mph NNW7.2 kmh NNW 12.1 mph19.5 kmh 29.41 in995.9 mb 0.00 in0.0 mm 0.00 in0.0 mm 0.08 in2.0 mm
03:30 PM 81.9°F27.7°C 67.1°F19.5°C 61% 13.0 mph N20.9 kmh N 20.6 mph33.2 kmh 29.41 in995.9 mb 0.00 in0.0 mm 0.00 in0.0 mm 0.08 in2.0 mm
03:45 PM 80.4°F26.9°C 68.0°F20.0°C 66% 4.5 mph NW7.2 kmh NW 14.5 mph23.3 kmh 29.41 in995.9 mb 0.00 in0.0 mm 0.00 in0.0 mm 0.08 in2.0 mm
04:00 PM 80.6°F27.0°C 67.7°F19.8°C 65% 10.7 mph NW17.2 kmh NW 13.0 mph20.9 kmh 29.42 in996.3 mb 0.00 in0.0 mm 0.00 in0.0 mm 0.08 in2.0 mm
04:15 PM 80.6°F27.0°C 66.8°F19.3°C 63% 6.0 mph NNW9.7 kmh NNW 13.6 mph21.9 kmh 29.42 in996.3 mb 0.00 in0.0 mm 0.00 in0.0 mm 0.08 in2.0 mm
04:30 PM 80.2°F26.8°C 67.4°F19.7°C 65% 15.9 mph NNW25.6 kmh NNW 20.6 mph33.2 kmh 29.43 in996.6 mb 0.00 in0.0 mm 0.00 in0.0 mm 0.08 in2.0 mm
04:45 PM 78.8°F26.0°C 66.5°F19.2°C 66% 9.8 mph NNE15.8 kmh NNE 20.6 mph33.2 kmh 29.43 in996.6 mb 0.00 in0.0 mm 0.00 in0.0 mm 0.08 in2.0 mm
05:00 PM 74.5°F23.6°C 64.9°F18.3°C 72% 8.3 mph N13.4 kmh N 17.4 mph28.0 kmh 29.45 in997.3 mb 0.05 in1.3 mm 0.07 in1.8 mm 0.13 in3.3 mm
05:15 PM 72.1°F22.3°C 66.0°F18.9°C 81% 5.4 mph N8.7 kmh N 13.6 mph21.9 kmh 29.45 in997.3 mb 0.07 in1.8 mm 0.08 in2.0 mm 0.15 in3.8 mm
05:30 PM 71.8°F22.1°C 67.0°F19.4°C 85% 4.5 mph N7.2 kmh N 6.0 mph9.7 kmh 29.45 in997.3 mb 0.08 in2.0 mm 0.04 in1.0 mm 0.17 in4.3 mm
05:45 PM 71.2°F21.8°C 67.5°F19.7°C 88% 3.8 mph NW6.1 kmh NW 6.9 mph11.1 kmh 29.46 in997.6 mb 0.08 in2.0 mm 0.00 in0.0 mm 0.17 in4.3 mm
06:00 PM 71.1°F21.7°C 68.0°F20.0°C 90% 4.5 mph NNW7.2 kmh NNW 9.8 mph15.8 kmh 29.46 in997.6 mb 0.04 in1.0 mm 0.00 in0.0 mm 0.17 in4.3 mm
06:15 PM 71.1°F21.7°C 68.3°F20.2°C 91% 6.0 mph NNW9.7 kmh NNW 9.2 mph14.8 kmh 29.46 in997.6 mb 0.01 in0.3 mm 0.00 in0.0 mm 0.17 in4.3 mm
06:30 PM 70.9°F21.6°C 68.4°F20.2°C 92% 6.9 mph NW11.1 kmh NW 8.3 mph13.4 kmh 29.46 in997.6 mb 0.00 in0.0 mm 0.00 in0.0 mm 0.17 in4.3 mm
06:45 PM 70.7°F21.5°C 68.3°F20.2°C 92% 4.5 mph NW7.2 kmh NW 9.2 mph14.8 kmh 29.46 in997.6 mb 0.00 in0.0 mm 0.00 in0.0 mm 0.17 in4.3 mm
07:00 PM 70.7°F21.5°C 68.6°F20.3°C 93% 4.5 mph NW7.2 kmh NW 9.2 mph14.8 kmh 29.47 in998.0 mb 0.00 in0.0 mm 0.00 in0.0 mm 0.17 in4.3 mm
07:15 PM 70.5°F21.4°C 68.7°F20.4°C 94% 6.0 mph NNW9.7 kmh NNW 7.6 mph12.2 kmh 29.47 in998.0 mb 0.01 in0.3 mm 0.04 in1.0 mm 0.18 in4.6 mm
07:30 PM 70.3°F21.3°C 68.5°F20.3°C 94% 4.5 mph NW7.2 kmh NW 10.7 mph17.2 kmh 29.46 in997.6 mb 0.01 in0.3 mm 0.00 in0.0 mm 0.18 in4.6 mm
07:45 PM 70.2°F21.2°C 68.4°F20.2°C 94% 2.2 mph NW3.5 kmh NW 7.6 mph12.2 kmh 29.47 in998.0 mb 0.01 in0.3 mm 0.00 in0.0 mm 0.18 in4.6 mm
08:00 PM 70.0°F21.1°C 68.2°F20.1°C 94% 2.2 mph NW3.5 kmh NW 5.4 mph8.7 kmh 29.48 in998.3 mb 0.01 in0.3 mm 0.00 in0.0 mm 0.18 in4.6 mm
08:15 PM 69.8°F21.0°C 68.0°F20.0°C 94% 5.4 mph NW8.7 kmh NW 7.6 mph12.2 kmh 29.48 in998.3 mb 0.00 in0.0 mm 0.00 in0.0 mm 0.18 in4.6 mm
08:30 PM 69.6°F20.9°C 67.8°F19.9°C 94% 5.4 mph NW8.7 kmh NW 7.6 mph12.2 kmh 29.47 in998.0 mb 0.00 in0.0 mm 0.00 in0.0 mm 0.18 in4.6 mm
08:45 PM 69.4°F20.8°C 67.6°F19.8°C 94% 3.1 mph NW5.0 kmh NW 6.9 mph11.1 kmh 29.48 in998.3 mb 0.00 in0.0 mm 0.00 in0.0 mm 0.18 in4.6 mm
09:00 PM 69.4°F20.8°C 67.9°F19.9°C 95% 2.2 mph NW3.5 kmh NW 5.4 mph8.7 kmh 29.48 in998.3 mb 0.00 in0.0 mm 0.00 in0.0 mm 0.18 in4.6 mm
09:15 PM 69.4°F20.8°C 67.9°F19.9°C 95% 4.5 mph WNW7.2 kmh WNW 6.9 mph11.1 kmh 29.47 in998.0 mb 0.00 in0.0 mm 0.00 in0.0 mm 0.18 in4.6 mm
09:30 PM 69.6°F20.9°C 68.4°F20.2°C 96% 3.8 mph NW6.1 kmh NW 9.8 mph15.8 kmh 29.48 in998.3 mb 0.00 in0.0 mm 0.00 in0.0 mm 0.18 in4.6 mm
09:45 PM 69.6°F20.9°C 68.4°F20.2°C 96% 6.0 mph NNW9.7 kmh NNW 8.3 mph13.4 kmh 29.48 in998.3 mb 0.00 in0.0 mm 0.00 in0.0 mm 0.18 in4.6 mm
10:00 PM 69.6°F20.9°C 68.7°F20.4°C 97% 4.5 mph NW7.2 kmh NW 11.4 mph18.3 kmh 29.48 in998.3 mb 0.00 in0.0 mm 0.00 in0.0 mm 0.18 in4.6 mm
10:15 PM 69.4°F20.8°C 68.6°F20.3°C 97% 3.1 mph N5.0 kmh N 11.4 mph18.3 kmh 29.48 in998.3 mb 0.00 in0.0 mm 0.00 in0.0 mm 0.18 in4.6 mm
10:30 PM 69.4°F20.8°C 68.6°F20.3°C 97% 3.1 mph NNW5.0 kmh NNW 6.0 mph9.7 kmh 29.48 in998.3 mb 0.00 in0.0 mm 0.00 in0.0 mm 0.18 in4.6 mm
10:45 PM 69.4°F20.8°C 68.6°F20.3°C 97% 1.6 mph NW2.6 kmh NW 7.6 mph12.2 kmh 29.48 in998.3 mb 0.00 in0.0 mm 0.00 in0.0 mm 0.18 in4.6 mm
11:00 PM 69.3°F20.7°C 68.4°F20.2°C 97% 3.1 mph W5.0 kmh W 6.9 mph11.1 kmh 29.49 in998.6 mb 0.00 in0.0 mm 0.00 in0.0 mm 0.17 in4.3 mm
11:15 PM 69.3°F20.7°C 68.4°F20.2°C 97% 3.8 mph W6.1 kmh W 6.9 mph11.1 kmh 29.48 in998.3 mb 0.00 in0.0 mm 0.00 in0.0 mm 0.17 in4.3 mm
11:30 PM 69.1°F20.6°C 68.2°F20.1°C 97% 2.2 mph W3.5 kmh W 6.9 mph11.1 kmh 29.48 in998.3 mb 0.00 in0.0 mm 0.00 in0.0 mm 0.17 in4.3 mm
11:45 PM 68.9°F20.5°C 68.0°F20.0°C 97% 3.1 mph W5.0 kmh W 6.0 mph9.7 kmh 29.48 in998.3 mb 0.00 in0.0 mm 0.00 in0.0 mm 0.17 in4.3 mm